sensor_id;sensor_type;location;lat;lon;timestamp;pressure;altitude;pressure_sealevel;temperature;humidity
11077;BME280;5591;42.626;23.380;2023-08-20T00:00:56;94480.63;;;23.05;100.00
11077;BME280;5591;42.626;23.380;2023-08-20T00:03:23;94476.00;;;22.96;100.00
11077;BME280;5591;42.626;23.380;2023-08-20T00:05:51;94486.09;;;23.20;100.00
11077;BME280;5591;42.626;23.380;2023-08-20T00:08:18;94464.50;;;23.00;100.00
11077;BME280;5591;42.626;23.380;2023-08-20T00:10:45;94481.28;;;23.22;100.00
11077;BME280;5591;42.626;23.380;2023-08-20T00:13:13;94478.91;;;23.30;100.00
11077;BME280;5591;42.626;23.380;2023-08-20T00:15:40;94447.53;;;23.21;100.00
11077;BME280;5591;42.626;23.380;2023-08-20T00:18:08;94475.50;;;23.45;100.00
11077;BME280;5591;42.626;23.380;2023-08-20T00:20:35;94442.16;;;23.16;100.00
11077;BME280;5591;42.626;23.380;2023-08-20T00:23:03;94475.25;;;23.46;100.00
11077;BME280;5591;42.626;23.380;2023-08-20T00:25:30;94466.66;;;23.39;100.00
11077;BME280;5591;42.626;23.380;2023-08-20T00:27:57;94482.19;;;23.37;100.00
11077;BME280;5591;42.626;23.380;2023-08-20T00:30:25;94484.38;;;23.50;100.00
11077;BME280;5591;42.626;23.380;2023-08-20T00:32:52;94484.13;;;23.57;100.00
11077;BME280;5591;42.626;23.380;2023-08-20T00:35:19;94488.66;;;23.51;100.00
11077;BME280;5591;42.626;23.380;2023-08-20T00:37:46;94489.69;;;23.35;100.00
11077;BME280;5591;42.626;23.380;2023-08-20T00:40:13;94484.91;;;23.42;100.00
11077;BME280;5591;42.626;23.380;2023-08-20T00:42:39;94474.72;;;23.49;100.00
11077;BME280;5591;42.626;23.380;2023-08-20T00:45:07;94476.59;;;23.44;100.00
11077;BME280;5591;42.626;23.380;2023-08-20T00:47:35;94479.56;;;23.47;100.00
11077;BME280;5591;42.626;23.380;2023-08-20T00:50:03;94470.97;;;23.45;100.00
11077;BME280;5591;42.626;23.380;2023-08-20T00:52:32;94470.97;;;23.45;100.00
11077;BME280;5591;42.626;23.380;2023-08-20T00:55:00;94473.38;;;23.42;100.00
11077;BME280;5591;42.626;23.380;2023-08-20T00:57:31;94466.59;;;23.29;100.00
11077;BME280;5591;42.626;23.380;2023-08-20T00:59:58;94479.97;;;23.24;100.00
11077;BME280;5591;42.626;23.380;2023-08-20T01:02:26;94475.97;;;23.27;100.00
11077;BME280;5591;42.626;23.380;2023-08-20T01:04:54;94433.81;;;23.12;100.00
11077;BME280;5591;42.626;23.380;2023-08-20T01:07:27;94471.44;;;23.32;100.00
11077;BME280;5591;42.626;23.380;2023-08-20T01:10:04;94466.94;;;23.02;100.00
11077;BME280;5591;42.626;23.380;2023-08-20T01:12:34;94473.91;;;23.02;100.00
11077;BME280;5591;42.626;23.380;2023-08-20T01:15:02;94355.41;;;22.39;100.00
11077;BME280;5591;42.626;23.380;2023-08-20T01:17:29;94464.81;;;23.03;100.00
11077;BME280;5591;42.626;23.380;2023-08-20T01:19:57;94453.84;;;23.05;100.00
11077;BME280;5591;42.626;23.380;2023-08-20T01:25:53;94472.78;;;22.98;100.00
11077;BME280;5591;42.626;23.380;2023-08-20T01:28:30;94408.84;;;22.61;100.00
11077;BME280;5591;42.626;23.380;2023-08-20T01:30:59;94464.81;;;23.03;100.00
11077;BME280;5591;42.626;23.380;2023-08-20T01:33:27;94464.75;;;22.94;100.00
11077;BME280;5591;42.626;23.380;2023-08-20T01:35:54;94460.47;;;22.98;100.00
11077;BME280;5591;42.626;23.380;2023-08-20T01:38:22;94466.88;;;22.92;100.00
11077;BME280;5591;42.626;23.380;2023-08-20T01:40:49;94427.09;;;22.69;100.00
11077;BME280;5591;42.626;23.380;2023-08-20T01:43:16;94461.69;;;22.75;100.00
11077;BME280;5591;42.626;23.380;2023-08-20T01:45:45;94444.84;;;22.80;100.00
11077;BME280;5591;42.626;23.380;2023-08-20T01:48:12;94448.47;;;22.64;100.00
11077;BME280;5591;42.626;23.380;2023-08-20T01:50:39;94430.78;;;22.58;100.00
11077;BME280;5591;42.626;23.380;2023-08-20T01:53:06;94443.72;;;22.71;100.00
11077;BME280;5591;42.626;23.380;2023-08-20T01:55:33;94446.56;;;22.59;100.00
11077;BME280;5591;42.626;23.380;2023-08-20T01:57:59;94444.34;;;22.51;100.00
11077;BME280;5591;42.626;23.380;2023-08-20T02:00:26;94446.56;;;22.59;100.00
11077;BME280;5591;42.626;23.380;2023-08-20T02:02:55;94452.47;;;22.35;100.00
11077;BME280;5591;42.626;23.380;2023-08-20T02:05:22;94432.03;;;22.24;100.00
11077;BME280;5591;42.626;23.380;2023-08-20T02:07:49;94426.47;;;22.30;100.00
11077;BME280;5591;42.626;23.380;2023-08-20T02:10:16;94431.88;;;22.35;100.00
11077;BME280;5591;42.626;23.380;2023-08-20T02:12:43;94413.91;;;22.31;100.00
11077;BME280;5591;42.626;23.380;2023-08-20T02:15:10;94411.38;;;22.41;100.00
11077;BME280;5591;42.626;23.380;2023-08-20T02:17:37;94422.06;;;22.41;100.00
11077;BME280;5591;42.626;23.380;2023-08-20T02:20:07;94423.56;;;22.32;100.00
11077;BME280;5591;42.626;23.380;2023-08-20T02:22:35;94422.41;;;22.23;100.00
11077;BME280;5591;42.626;23.380;2023-08-20T02:25:02;94419.50;;;22.24;100.00
11077;BME280;5591;42.626;23.380;2023-08-20T02:27:29;94424.44;;;22.11;100.00
11077;BME280;5591;42.626;23.380;2023-08-20T02:29:56;94424.25;;;21.91;100.00
11077;BME280;5591;42.626;23.380;2023-08-20T02:32:22;94395.16;;;21.68;100.00
11077;BME280;5591;42.626;23.380;2023-08-20T02:34:50;94420.59;;;21.75;100.00
11077;BME280;5591;42.626;23.380;2023-08-20T02:37:18;94427.63;;;21.81;100.00
11077;BME280;5591;42.626;23.380;2023-08-20T02:39:45;94425.16;;;21.75;100.00
11077;BME280;5591;42.626;23.380;2023-08-20T02:42:12;94408.75;;;21.66;100.00
11077;BME280;5591;42.626;23.380;2023-08-20T02:44:39;94414.41;;;21.70;100.00
11077;BME280;5591;42.626;23.380;2023-08-20T02:47:06;94425.16;;;21.75;100.00
11077;BME280;5591;42.626;23.380;2023-08-20T02:49:32;94412.91;;;21.57;100.00
11077;BME280;5591;42.626;23.380;2023-08-20T02:51:59;94412.34;;;21.55;100.00
11077;BME280;5591;42.626;23.380;2023-08-20T02:54:27;94420.94;;;21.57;100.00
11077;BME280;5591;42.626;23.380;2023-08-20T02:56:54;94425.34;;;21.47;100.00
11077;BME280;5591;42.626;23.380;2023-08-20T02:59:21;94427.34;;;21.35;100.00
11077;BME280;5591;42.626;23.380;2023-08-20T03:01:48;94428.59;;;21.27;100.00
11077;BME280;5591;42.626;23.380;2023-08-20T03:04:15;94430.63;;;21.20;100.00
11077;BME280;5591;42.626;23.380;2023-08-20T03:06:42;94350.31;;;20.62;100.00
11077;BME280;5591;42.626;23.380;2023-08-20T03:09:09;94434.53;;;21.13;100.00
11077;BME280;5591;42.626;23.380;2023-08-20T03:11:37;94427.81;;;21.10;100.00
11077;BME280;5591;42.626;23.380;2023-08-20T03:14:04;94431.63;;;21.14;100.00
11077;BME280;5591;42.626;23.380;2023-08-20T03:16:31;94453.03;;;21.19;100.00
11077;BME280;5591;42.626;23.380;2023-08-20T03:18:58;94424.34;;;21.10;100.00
11077;BME280;5591;42.626;23.380;2023-08-20T03:21:25;94429.69;;;21.10;100.00
11077;BME280;5591;42.626;23.380;2023-08-20T03:23:51;94428.97;;;21.14;100.00
11077;BME280;5591;42.626;23.380;2023-08-20T03:26:18;94418.50;;;21.13;100.00
11077;BME280;5591;42.626;23.380;2023-08-20T03:28:46;94426.00;;;21.16;100.00
11077;BME280;5591;42.626;23.380;2023-08-20T03:31:13;94404.06;;;21.09;100.00
11077;BME280;5591;42.626;23.380;2023-08-20T03:33:40;94414.59;;;21.20;100.00
11077;BME280;5591;42.626;23.380;2023-08-20T03:36:07;94420.25;;;21.24;100.00
11077;BME280;5591;42.626;23.380;2023-08-20T03:38:33;94424.31;;;21.26;100.00
11077;BME280;5591;42.626;23.380;2023-08-20T03:41:00;94426.41;;;21.24;100.00
11077;BME280;5591;42.626;23.380;2023-08-20T03:43:28;94412.06;;;21.30;100.00
11077;BME280;5591;42.626;23.380;2023-08-20T03:45:56;94418.50;;;21.34;100.00
11077;BME280;5591;42.626;23.380;2023-08-20T03:48:23;94421.47;;;21.38;100.00
11077;BME280;5591;42.626;23.380;2023-08-20T03:50:50;94410.47;;;21.34;100.00
11077;BME280;5591;42.626;23.380;2023-08-20T03:53:17;94414.06;;;21.40;100.00
11077;BME280;5591;42.626;23.380;2023-08-20T03:55:47;94410.91;;;21.48;100.00
11077;BME280;5591;42.626;23.380;2023-08-20T03:58:14;94415.88;;;21.61;100.00
11077;BME280;5591;42.626;23.380;2023-08-20T04:00:41;94412.09;;;21.57;100.00
11077;BME280;5591;42.626;23.380;2023-08-20T04:03:09;94418.53;;;21.61;100.00
11077;BME280;5591;42.626;23.380;2023-08-20T04:05:36;94400.03;;;21.54;100.00
11077;BME280;5591;42.626;23.380;2023-08-20T04:08:04;94365.56;;;21.26;100.00
11077;BME280;5591;42.626;23.380;2023-08-20T04:10:31;94406.19;;;21.55;100.00
11077;BME280;5591;42.626;23.380;2023-08-20T04:12:58;94416.88;;;21.76;100.00
11077;BME280;5591;42.626;23.380;2023-08-20T04:15:25;94422.53;;;21.80;100.00
11077;BME280;5591;42.626;23.380;2023-08-20T04:17:52;94415.06;;;21.82;100.00
11077;BME280;5591;42.626;23.380;2023-08-20T04:20:20;94414.59;;;21.90;100.00
11077;BME280;5591;42.626;23.380;2023-08-20T04:22:47;94417.66;;;21.72;100.00
11077;BME280;5591;42.626;23.380;2023-08-20T04:25:14;94434.78;;;21.76;100.00
11077;BME280;5591;42.626;23.380;2023-08-20T04:27:41;94412.78;;;21.69;100.00
11077;BME280;5591;42.626;23.380;2023-08-20T04:30:09;94409.97;;;21.59;100.00
11077;BME280;5591;42.626;23.380;2023-08-20T04:32:36;94420.50;;;21.65;100.00
11077;BME280;5591;42.626;23.380;2023-08-20T04:35:03;94421.44;;;21.76;100.00
11077;BME280;5591;42.626;23.380;2023-08-20T04:37:31;94415.91;;;21.87;100.00
11077;BME280;5591;42.626;23.380;2023-08-20T04:39:58;94413.63;;;21.96;100.00
11077;BME280;5591;42.626;23.380;2023-08-20T04:42:25;94407.91;;;21.87;100.00
11077;BME280;5591;42.626;23.380;2023-08-20T04:44:52;94424.72;;;22.09;100.00
11077;BME280;5591;42.626;23.380;2023-08-20T04:47:18;94419.59;;;22.08;100.00
11077;BME280;5591;42.626;23.380;2023-08-20T04:49:45;94385.28;;;21.68;100.00
11077;BME280;5591;42.626;23.380;2023-08-20T04:52:12;94413.78;;;22.42;100.00
11077;BME280;5591;42.626;23.380;2023-08-20T04:54:40;94423.00;;;22.56;100.00
11077;BME280;5591;42.626;23.380;2023-08-20T04:57:07;94408.56;;;22.62;100.00
11077;BME280;5591;42.626;23.380;2023-08-20T04:59:34;94426.91;;;22.80;100.00
11077;BME280;5591;42.626;23.380;2023-08-20T05:02:01;94422.53;;;22.69;100.00
11077;BME280;5591;42.626;23.380;2023-08-20T05:04:27;94430.97;;;22.88;100.00
11077;BME280;5591;42.626;23.380;2023-08-20T05:06:54;94419.47;;;22.92;100.00
11077;BME280;5591;42.626;23.380;2023-08-20T05:09:21;94422.56;;;23.10;100.00
11077;BME280;5591;42.626;23.380;2023-08-20T05:11:49;94420.81;;;23.36;100.00
11077;BME280;5591;42.626;23.380;2023-08-20T05:14:16;94423.22;;;23.32;100.00
11077;BME280;5591;42.626;23.380;2023-08-20T05:16:43;94413.78;;;23.25;100.00
11077;BME280;5591;42.626;23.380;2023-08-20T05:19:10;94426.22;;;23.46;100.00
11077;BME280;5591;42.626;23.380;2023-08-20T05:21:37;94426.84;;;23.73;100.00
11077;BME280;5591;42.626;23.380;2023-08-20T05:24:04;94420.25;;;24.00;100.00
11077;BME280;5591;42.626;23.380;2023-08-20T05:26:31;94428.59;;;24.19;100.00
11077;BME280;5591;42.626;23.380;2023-08-20T05:28:59;94425.13;;;24.48;100.00
11077;BME280;5591;42.626;23.380;2023-08-20T05:31:26;94419.50;;;24.70;100.00
11077;BME280;5591;42.626;23.380;2023-08-20T05:33:53;94377.06;;;24.32;100.00
11077;BME280;5591;42.626;23.380;2023-08-20T05:36:20;94434.28;;;24.62;100.00
11077;BME280;5591;42.626;23.380;2023-08-20T05:38:47;94402.06;;;24.42;100.00
11077;BME280;5591;42.626;23.380;2023-08-20T05:41:14;94438.59;;;24.73;100.00
11077;BME280;5591;42.626;23.380;2023-08-20T05:43:41;94448.47;;;25.03;98.41
11077;BME280;5591;42.626;23.380;2023-08-20T05:46:09;94438.03;;;24.96;98.99
11077;BME280;5591;42.626;23.380;2023-08-20T05:48:36;94445.22;;;25.26;97.34
11077;BME280;5591;42.626;23.380;2023-08-20T05:51:02;94453.50;;;25.44;96.00
11077;BME280;5591;42.626;23.380;2023-08-20T05:53:29;94448.84;;;25.70;94.43
11077;BME280;5591;42.626;23.380;2023-08-20T05:55:56;94456.34;;;25.88;93.09
11077;BME280;5591;42.626;23.380;2023-08-20T05:58:23;94455.50;;;25.92;92.06
11077;BME280;5591;42.626;23.380;2023-08-20T06:00:50;94446.25;;;26.08;90.64
11077;BME280;5591;42.626;23.380;2023-08-20T06:03:18;94445.94;;;26.19;90.66
11077;BME280;5591;42.626;23.380;2023-08-20T06:05:45;94449.38;;;26.30;90.18
11077;BME280;5591;42.626;23.380;2023-08-20T06:08:11;94372.38;;;25.90;90.28
11077;BME280;5591;42.626;23.380;2023-08-20T06:10:38;94445.22;;;26.47;90.17
11077;BME280;5591;42.626;23.380;2023-08-20T06:13:05;94368.13;;;26.23;89.46
11077;BME280;5591;42.626;23.380;2023-08-20T06:15:32;94453.56;;;26.46;89.38
11077;BME280;5591;42.626;23.380;2023-08-20T06:17:58;94455.56;;;26.69;88.25
11077;BME280;5591;42.626;23.380;2023-08-20T06:20:27;94449.19;;;26.93;86.49
11077;BME280;5591;42.626;23.380;2023-08-20T06:22:53;94458.09;;;26.94;85.54
11077;BME280;5591;42.626;23.380;2023-08-20T06:25:20;94452.31;;;27.05;84.13
11077;BME280;5591;42.626;23.380;2023-08-20T06:27:47;94459.63;;;27.33;83.75
11077;BME280;5591;42.626;23.380;2023-08-20T06:30:14;94447.69;;;27.63;81.21
11077;BME280;5591;42.626;23.380;2023-08-20T06:32:41;94461.19;;;27.86;80.35
11077;BME280;5591;42.626;23.380;2023-08-20T06:35:08;94459.31;;;28.05;79.89
11077;BME280;5591;42.626;23.380;2023-08-20T06:37:38;94453.63;;;28.25;77.30
11077;BME280;5591;42.626;23.380;2023-08-20T06:40:06;94459.09;;;28.44;76.98
11077;BME280;5591;42.626;23.380;2023-08-20T06:42:33;94463.44;;;28.58;76.89
11077;BME280;5591;42.626;23.380;2023-08-20T06:45:00;94463.34;;;28.26;76.27
11077;BME280;5591;42.626;23.380;2023-08-20T06:47:27;94457.50;;;28.43;76.25
11077;BME280;5591;42.626;23.380;2023-08-20T06:49:54;94468.91;;;28.71;74.27
11077;BME280;5591;42.626;23.380;2023-08-20T06:52:21;94468.41;;;28.69;73.29
11077;BME280;5591;42.626;23.380;2023-08-20T06:54:49;94464.50;;;28.62;72.46
11077;BME280;5591;42.626;23.380;2023-08-20T06:57:16;94463.28;;;28.68;73.72
11077;BME280;5591;42.626;23.380;2023-08-20T06:59:42;94465.84;;;28.78;71.94
11077;BME280;5591;42.626;23.380;2023-08-20T07:02:09;94471.69;;;29.03;71.33
11077;BME280;5591;42.626;23.380;2023-08-20T07:04:36;94458.31;;;29.25;69.61
11077;BME280;5591;42.626;23.380;2023-08-20T07:07:03;94464.84;;;29.38;68.65
11077;BME280;5591;42.626;23.380;2023-08-20T07:09:31;94472.88;;;29.29;68.49
11077;BME280;5591;42.626;23.380;2023-08-20T07:12:00;94470.22;;;29.24;68.50
11077;BME280;5591;42.626;23.380;2023-08-20T07:14:27;94463.75;;;29.39;68.81
11077;BME280;5591;42.626;23.380;2023-08-20T07:16:54;94463.84;;;29.34;68.76
11077;BME280;5591;42.626;23.380;2023-08-20T07:19:21;94472.13;;;29.69;66.42
11077;BME280;5591;42.626;23.380;2023-08-20T07:21:48;94465.53;;;29.75;66.29
11077;BME280;5591;42.626;23.380;2023-08-20T07:24:15;94459.00;;;29.76;66.49
11077;BME280;5591;42.626;23.380;2023-08-20T07:26:41;94464.72;;;29.16;67.94
11077;BME280;5591;42.626;23.380;2023-08-20T07:29:10;94465.66;;;29.38;68.03
11077;BME280;5591;42.626;23.380;2023-08-20T07:31:37;94465.31;;;29.58;68.46
11077;BME280;5591;42.626;23.380;2023-08-20T07:34:04;94462.31;;;29.73;68.45
11077;BME280;5591;42.626;23.380;2023-08-20T07:36:31;94468.22;;;29.75;67.33
11077;BME280;5591;42.626;23.380;2023-08-20T07:38:59;94472.34;;;29.86;66.40
11077;BME280;5591;42.626;23.380;2023-08-20T07:41:26;94455.06;;;29.96;65.72
11077;BME280;5591;42.626;23.380;2023-08-20T07:43:53;94469.06;;;30.52;62.55
11077;BME280;5591;42.626;23.380;2023-08-20T07:46:21;94469.50;;;30.45;63.26
11077;BME280;5591;42.626;23.380;2023-08-20T07:48:48;94470.97;;;30.51;63.03
11077;BME280;5591;42.626;23.380;2023-08-20T07:51:15;94460.19;;;30.73;61.82
11077;BME280;5591;42.626;23.380;2023-08-20T07:53:42;94453.41;;;30.84;60.77
11077;BME280;5591;42.626;23.380;2023-08-20T07:56:09;94471.81;;;31.09;59.45
11077;BME280;5591;42.626;23.380;2023-08-20T07:58:35;94460.97;;;31.31;57.13
11077;BME280;5591;42.626;23.380;2023-08-20T08:01:02;94463.84;;;30.91;57.90
11077;BME280;5591;42.626;23.380;2023-08-20T08:03:30;94465.06;;;30.49;57.94
11077;BME280;5591;42.626;23.380;2023-08-20T08:05:57;94461.69;;;30.79;55.27
11077;BME280;5591;42.626;23.380;2023-08-20T08:08:24;94468.28;;;30.87;56.05
11077;BME280;5591;42.626;23.380;2023-08-20T08:10:51;94461.44;;;31.33;55.55
11077;BME280;5591;42.626;23.380;2023-08-20T08:13:20;94464.13;;;31.55;52.74
11077;BME280;5591;42.626;23.380;2023-08-20T08:15:47;94486.59;;;31.47;51.51
11077;BME280;5591;42.626;23.380;2023-08-20T08:18:14;94469.00;;;31.45;50.52
11077;BME280;5591;42.626;23.380;2023-08-20T08:20:42;94465.75;;;31.64;48.92
11077;BME280;5591;42.626;23.380;2023-08-20T08:23:09;94465.47;;;32.05;49.53
11077;BME280;5591;42.626;23.380;2023-08-20T08:25:36;94465.53;;;31.83;47.54
11077;BME280;5591;42.626;23.380;2023-08-20T08:28:04;94463.47;;;31.50;49.55
11077;BME280;5591;42.626;23.380;2023-08-20T08:30:31;94463.59;;;31.75;47.46
11077;BME280;5591;42.626;23.380;2023-08-20T08:32:58;94434.41;;;31.89;45.63
11077;BME280;5591;42.626;23.380;2023-08-20T08:35:25;94466.91;;;32.11;45.49
11077;BME280;5591;42.626;23.380;2023-08-20T08:37:53;94452.31;;;31.98;47.01
11077;BME280;5591;42.626;23.380;2023-08-20T08:40:20;94456.50;;;32.04;47.09
11077;BME280;5591;42.626;23.380;2023-08-20T08:42:48;94387.25;;;31.76;46.75
11077;BME280;5591;42.626;23.380;2023-08-20T08:45:17;94440.19;;;31.65;46.57
11077;BME280;5591;42.626;23.380;2023-08-20T08:47:45;94459.41;;;31.69;45.21
11077;BME280;5591;42.626;23.380;2023-08-20T08:50:13;94488.75;;;31.89;44.86
11077;BME280;5591;42.626;23.380;2023-08-20T08:52:41;94470.63;;;31.76;46.30
11077;BME280;5591;42.626;23.380;2023-08-20T08:55:09;94463.06;;;32.03;44.11
11077;BME280;5591;42.626;23.380;2023-08-20T08:57:36;94462.41;;;32.45;42.44
11077;BME280;5591;42.626;23.380;2023-08-20T09:00:04;94459.53;;;32.67;41.50
11077;BME280;5591;42.626;23.380;2023-08-20T09:02:32;94458.06;;;32.61;40.97
11077;BME280;5591;42.626;23.380;2023-08-20T09:04:59;94465.81;;;32.76;41.50
11077;BME280;5591;42.626;23.380;2023-08-20T09:07:26;94463.09;;;32.76;41.42
11077;BME280;5591;42.626;23.380;2023-08-20T09:09:57;94467.06;;;32.62;41.53
11077;BME280;5591;42.626;23.380;2023-08-20T09:12:26;94461.63;;;32.62;41.88
11077;BME280;5591;42.626;23.380;2023-08-20T09:14:54;94446.56;;;32.56;42.86
11077;BME280;5591;42.626;23.380;2023-08-20T09:17:25;94462.72;;;32.69;41.32
11077;BME280;5591;42.626;23.380;2023-08-20T09:19:54;94456.81;;;33.10;40.86
11077;BME280;5591;42.626;23.380;2023-08-20T09:22:21;94401.63;;;32.58;41.07
11077;BME280;5591;42.626;23.380;2023-08-20T09:24:53;94452.84;;;33.07;40.30
11077;BME280;5591;42.626;23.380;2023-08-20T09:27:21;94464.81;;;33.32;39.91
11077;BME280;5591;42.626;23.380;2023-08-20T09:29:52;94454.94;;;33.27;38.04
11077;BME280;5591;42.626;23.380;2023-08-20T09:32:20;94457.59;;;32.59;38.12
11077;BME280;5591;42.626;23.380;2023-08-20T09:34:48;94467.69;;;32.59;37.94
11077;BME280;5591;42.626;23.380;2023-08-20T09:37:18;94453.78;;;32.69;38.15
11077;BME280;5591;42.626;23.380;2023-08-20T09:39:45;94460.34;;;32.93;38.04
11077;BME280;5591;42.626;23.380;2023-08-20T09:42:13;94454.13;;;32.93;38.15
11077;BME280;5591;42.626;23.380;2023-08-20T09:44:41;94445.28;;;32.70;37.49
11077;BME280;5591;42.626;23.380;2023-08-20T09:47:11;94455.97;;;32.41;37.06
11077;BME280;5591;42.626;23.380;2023-08-20T09:49:41;94463.81;;;32.26;36.67
11077;BME280;5591;42.626;23.380;2023-08-20T09:52:09;94456.97;;;32.54;36.84
11077;BME280;5591;42.626;23.380;2023-08-20T09:54:47;94450.56;;;33.18;36.42
11077;BME280;5591;42.626;23.380;2023-08-20T09:57:26;94454.25;;;32.37;36.67
11077;BME280;5591;42.626;23.380;2023-08-20T09:59:54;94449.34;;;32.90;36.57
11077;BME280;5591;42.626;23.380;2023-08-20T10:02:24;94442.91;;;33.11;36.75
11077;BME280;5591;42.626;23.380;2023-08-20T10:04:52;94400.66;;;32.63;37.23
11077;BME280;5591;42.626;23.380;2023-08-20T10:07:19;94450.75;;;32.96;37.12
11077;BME280;5591;42.626;23.380;2023-08-20T10:09:48;94443.38;;;33.13;38.22
11077;BME280;5591;42.626;23.380;2023-08-20T10:12:17;94436.75;;;33.48;36.33
11077;BME280;5591;42.626;23.380;2023-08-20T10:14:45;94451.19;;;32.30;37.64
11077;BME280;5591;42.626;23.380;2023-08-20T10:17:12;94446.59;;;32.64;38.25
11077;BME280;5591;42.626;23.380;2023-08-20T10:19:42;94451.72;;;32.91;38.10
11077;BME280;5591;42.626;23.380;2023-08-20T10:22:09;94449.75;;;33.34;38.37
11077;BME280;5591;42.626;23.380;2023-08-20T10:24:47;94450.25;;;33.28;38.12
11077;BME280;5591;42.626;23.380;2023-08-20T10:27:24;94444.53;;;32.95;38.74
11077;BME280;5591;42.626;23.380;2023-08-20T10:29:52;94443.81;;;33.95;36.48
11077;BME280;5591;42.626;23.380;2023-08-20T10:32:20;94442.72;;;34.25;36.12
11077;BME280;5591;42.626;23.380;2023-08-20T10:34:51;94440.59;;;33.56;37.72
11077;BME280;5591;42.626;23.380;2023-08-20T10:37:26;94441.22;;;33.53;38.03
11077;BME280;5591;42.626;23.380;2023-08-20T10:39:54;94444.34;;;33.80;38.46
11077;BME280;5591;42.626;23.380;2023-08-20T10:42:30;94433.22;;;34.31;37.35
11077;BME280;5591;42.626;23.380;2023-08-20T10:45:02;94413.38;;;33.93;37.77
11077;BME280;5591;42.626;23.380;2023-08-20T10:47:37;94419.88;;;33.72;38.82
11077;BME280;5591;42.626;23.380;2023-08-20T10:50:09;94435.53;;;33.83;38.62
11077;BME280;5591;42.626;23.380;2023-08-20T10:52:39;94432.63;;;34.17;38.11
11077;BME280;5591;42.626;23.380;2023-08-20T10:55:07;94421.03;;;34.00;38.04
11077;BME280;5591;42.626;23.380;2023-08-20T10:57:35;94407.69;;;32.64;39.33
11077;BME280;5591;42.626;23.380;2023-08-20T11:00:03;94420.69;;;32.84;40.41
11077;BME280;5591;42.626;23.380;2023-08-20T11:02:36;94415.06;;;33.23;39.10
11077;BME280;5591;42.626;23.380;2023-08-20T11:05:04;94417.41;;;33.87;38.18
11077;BME280;5591;42.626;23.380;2023-08-20T11:07:45;94411.16;;;34.16;37.49
11077;BME280;5591;42.626;23.380;2023-08-20T11:10:13;94407.19;;;34.83;36.80
11077;BME280;5591;42.626;23.380;2023-08-20T11:12:41;94372.00;;;34.20;37.09
11077;BME280;5591;42.626;23.380;2023-08-20T11:15:09;94405.50;;;34.29;38.41
11077;BME280;5591;42.626;23.380;2023-08-20T11:17:41;94408.56;;;34.48;37.29
11077;BME280;5591;42.626;23.380;2023-08-20T11:20:09;94403.88;;;34.77;37.14
11077;BME280;5591;42.626;23.380;2023-08-20T11:22:38;94399.75;;;34.71;37.26
11077;BME280;5591;42.626;23.380;2023-08-20T11:25:10;94397.28;;;35.55;35.93
11077;BME280;5591;42.626;23.380;2023-08-20T11:27:40;94396.81;;;34.76;36.52
11077;BME280;5591;42.626;23.380;2023-08-20T11:30:07;94391.56;;;35.81;34.27
11077;BME280;5591;42.626;23.380;2023-08-20T11:32:35;94375.72;;;35.98;35.32
11077;BME280;5591;42.626;23.380;2023-08-20T11:35:02;94385.59;;;36.63;33.38
11077;BME280;5591;42.626;23.380;2023-08-20T11:37:29;94389.88;;;36.76;33.42
11077;BME280;5591;42.626;23.380;2023-08-20T11:39:56;94397.75;;;36.77;33.06
11077;BME280;5591;42.626;23.380;2023-08-20T11:42:24;94396.91;;;37.28;32.10
11077;BME280;5591;42.626;23.380;2023-08-20T11:44:55;94393.66;;;38.31;30.76
11077;BME280;5591;42.626;23.380;2023-08-20T11:47:22;94386.53;;;38.95;29.47
11077;BME280;5591;42.626;23.380;2023-08-20T11:50:01;94371.97;;;39.33;29.25
11077;BME280;5591;42.626;23.380;2023-08-20T11:52:30;94385.88;;;40.30;29.23
11077;BME280;5591;42.626;23.380;2023-08-20T11:54:57;94388.03;;;40.17;29.21
11077;BME280;5591;42.626;23.380;2023-08-20T11:57:26;94389.25;;;39.33;29.19
11077;BME280;5591;42.626;23.380;2023-08-20T11:59:54;94386.13;;;39.54;29.55
11077;BME280;5591;42.626;23.380;2023-08-20T12:02:25;94370.13;;;40.27;28.67
11077;BME280;5591;42.626;23.380;2023-08-20T12:04:52;94389.81;;;40.29;29.49
11077;BME280;5591;42.626;23.380;2023-08-20T12:07:18;94376.59;;;42.46;26.77
11077;BME280;5591;42.626;23.380;2023-08-20T12:09:45;94375.75;;;41.55;27.59
11077;BME280;5591;42.626;23.380;2023-08-20T12:12:13;94372.13;;;42.31;26.38
11077;BME280;5591;42.626;23.380;2023-08-20T12:14:42;94367.59;;;41.29;26.82
11077;BME280;5591;42.626;23.380;2023-08-20T12:17:09;94361.97;;;42.45;26.62
11077;BME280;5591;42.626;23.380;2023-08-20T12:19:36;94367.44;;;42.92;25.97
11077;BME280;5591;42.626;23.380;2023-08-20T12:22:03;94361.78;;;42.17;26.29
11077;BME280;5591;42.626;23.380;2023-08-20T12:24:30;94354.50;;;41.55;26.87
11077;BME280;5591;42.626;23.380;2023-08-20T12:26:56;94357.09;;;44.30;24.64
11077;BME280;5591;42.626;23.380;2023-08-20T12:29:23;94358.66;;;44.63;24.05
11077;BME280;5591;42.626;23.380;2023-08-20T12:31:51;94361.16;;;45.47;23.29
11077;BME280;5591;42.626;23.380;2023-08-20T12:34:19;94306.75;;;45.63;23.19
11077;BME280;5591;42.626;23.380;2023-08-20T12:36:46;94355.09;;;43.85;24.47
11077;BME280;5591;42.626;23.380;2023-08-20T12:39:13;94354.44;;;41.52;26.57
11077;BME280;5591;42.626;23.380;2023-08-20T12:41:40;94351.75;;;43.21;25.13
11077;BME280;5591;42.626;23.380;2023-08-20T12:44:08;94344.47;;;42.81;25.31
11077;BME280;5591;42.626;23.380;2023-08-20T12:46:35;94352.31;;;43.96;24.54
11077;BME280;5591;42.626;23.380;2023-08-20T12:49:03;94362.38;;;43.12;25.54
11077;BME280;5591;42.626;23.380;2023-08-20T12:51:30;94358.28;;;44.50;23.88
11077;BME280;5591;42.626;23.380;2023-08-20T12:53:57;94354.72;;;43.87;24.12
11077;BME280;5591;42.626;23.380;2023-08-20T12:56:24;94351.44;;;43.36;24.93
11077;BME280;5591;42.626;23.380;2023-08-20T12:58:50;94342.03;;;42.76;25.42
11077;BME280;5591;42.626;23.380;2023-08-20T13:01:17;94297.75;;;42.55;25.23